Portada
METAR-TAF:

METAR-TAF

Aeropuertos :

Bentonville Municipal Airport/Louise M Thaden Field

Bentonville, Arkansas, Estados Unidos

latitud: 36-21N, longitud: 094-13W, altitud: 395 m

Observación

El informe se hizo hace 1 hora y 12 minutos, a las 07:56 UTC
Viento calma
Temperatura 24°C
Humedad 89%
Presión 1016 hPa
Visibilidad: 16.1 km
Escasas nubes a una altura de 5000 ft

METAR: KVBT 060756Z AUTO 00000KT 10SM FEW050 24/22 A3001 RMK AO2 SLP151 T02390217 TSNO

Hora: 04:08 (09:08 UTC)


TAF: falta

Observaciones y pronósticos meteorológicos de más de 4000 aeropuertos (mensajes METAR y TAF).

Los puntos amarillos y rojos representan las estaciones disponibles.

Ponga el ratón en el punto deseado para ver el nombre de la estación.

Haga clic para ver las observaciones y los pronósticos meteorológicos.

Para cambiar el mapa : haga clic en los botones verdes con una cruz de color negro para hacer un zoom, en el botón verde con un guión para alejar o en las flechas verdes para mapas adyacentes.


METAR-TAF: